Time;durP1;ratioP1;P1;durP2;ratioP2;P2;SDS_P1;SDS_P2;PMS_P1;PMS_P2;Temp;Humidity;BMP_temperature;BMP_pressure;BME280_temperature;BME280_humidity;BME280_pressure;Samples;Min_cycle;Max_cycle;Signal;HPM_P1;HPM_P2
2023/12/20 00:00:59;;;;;;;10.23;3.50;;;8.20;99.90;;;;;;5112751;28;20024;-67
2023/12/20 00:03:24;;;;;;;9.27;3.13;;;8.20;99.90;;;;;;5112265;28;20040;-66
2023/12/20 00:05:50;;;;;;;12.88;3.70;;;8.20;99.90;;;;;;5113064;28;20103;-66
2023/12/20 00:08:16;;;;;;;11.88;2.72;;;8.10;99.90;;;;;;5112935;28;20046;-66
2023/12/20 00:10:43;;;;;;;14.45;2.75;;;8.00;99.90;;;;;;5112932;28;20051;-67
2023/12/20 00:13:09;;;;;;;11.05;2.75;;;8.00;99.90;;;;;;5111848;28;20103;-66
2023/12/20 00:15:35;;;;;;;11.02;2.55;;;7.90;99.90;;;;;;5112768;28;20035;-67
2023/12/20 00:18:00;;;;;;;7.90;3.22;;;7.80;99.90;;;;;;5112627;28;20059;-67
2023/12/20 00:20:27;;;;;;;10.18;2.50;;;7.80;99.90;;;;;;5112647;28;20490;-67
2023/12/20 00:22:54;;;;;;;11.50;2.05;;;7.70;99.90;;;;;;5112556;28;20016;-67
2023/12/20 00:25:20;;;;;;;8.95;2.38;;;7.70;99.90;;;;;;5112652;28;20027;-66
2023/12/20 00:27:45;;;;;;;10.30;2.47;;;7.60;99.90;;;;;;5112624;28;20036;-67
2023/12/20 00:30:11;;;;;;;7.55;1.95;;;7.60;99.90;;;;;;5112469;28;20031;-66
2023/12/20 00:32:37;;;;;;;13.02;2.65;;;7.60;99.90;;;;;;5112603;28;20043;-68
2023/12/20 00:35:02;;;;;;;9.02;2.50;;;7.60;99.90;;;;;;5112605;28;20028;-66
2023/12/20 00:37:28;;;;;;;12.70;3.15;;;7.60;99.90;;;;;;5112527;28;20024;-67
2023/12/20 00:39:54;;;;;;;10.32;2.67;;;7.60;99.90;;;;;;5112547;28;20546;-67
2023/12/20 00:42:19;;;;;;;10.80;2.53;;;7.60;99.90;;;;;;5112493;28;20028;-67
2023/12/20 00:44:45;;;;;;;8.15;2.08;;;7.60;99.90;;;;;;5112437;28;20028;-66
2023/12/20 00:47:11;;;;;;;14.65;3.22;;;7.60;99.90;;;;;;5112468;28;20029;-67
2023/12/20 00:49:36;;;;;;;12.13;3.15;;;7.60;99.90;;;;;;5112468;28;20108;-67
2023/12/20 00:52:02;;;;;;;8.98;3.20;;;7.60;99.90;;;;;;5112170;28;20059;-68
2023/12/20 00:54:28;;;;;;;11.30;2.97;;;7.60;99.90;;;;;;5111346;28;20062;-67
2023/12/20 00:56:54;;;;;;;8.20;2.55;;;7.50;99.90;;;;;;5112342;28;20028;-67
2023/12/20 00:59:19;;;;;;;10.57;3.03;;;7.50;99.90;;;;;;5112352;28;20036;-65
2023/12/20 01:01:45;;;;;;;9.27;3.50;;;7.50;99.90;;;;;;5112207;28;20035;-65
2023/12/20 01:04:10;;;;;;;7.88;2.90;;;7.50;99.90;;;;;;5112405;28;20056;-67
2023/12/20 01:06:36;;;;;;;13.30;3.45;;;7.40;99.90;;;;;;5112315;28;20088;-68
2023/12/20 01:09:02;;;;;;;14.10;3.45;;;7.40;99.90;;;;;;5112155;28;20024;-68
2023/12/20 01:11:28;;;;;;;17.92;3.45;;;7.30;99.90;;;;;;5112225;28;20032;-66
2023/12/20 01:13:54;;;;;;;8.98;3.58;;;7.30;99.90;;;;;;5114350;28;20020;-65
2023/12/20 01:16:19;;;;;;;9.55;3.63;;;7.30;99.90;;;;;;5116164;28;20039;-68
2023/12/20 01:18:45;;;;;;;13.13;3.33;;;7.20;99.90;;;;;;5116115;28;20028;-65
2023/12/20 01:21:10;;;;;;;8.85;3.38;;;7.20;99.90;;;;;;5116047;28;20028;-68
2023/12/20 01:23:36;;;;;;;14.40;3.45;;;7.10;99.90;;;;;;5116009;28;20024;-66
2023/12/20 01:26:02;;;;;;;9.88;3.13;;;7.10;99.90;;;;;;5115953;28;20054;-66
2023/12/20 01:28:28;;;;;;;9.18;3.13;;;7.10;99.90;;;;;;5116105;28;20043;-67
2023/12/20 01:30:54;;;;;;;9.65;2.85;;;7.20;99.90;;;;;;5115758;28;20500;-65
2023/12/20 01:33:19;;;;;;;6.85;3.00;;;7.20;99.90;;;;;;5115923;28;20036;-66
2023/12/20 01:35:45;;;;;;;8.55;2.55;;;7.20;99.90;;;;;;5115921;28;20050;-66
2023/12/20 01:38:10;;;;;;;9.82;2.80;;;7.20;99.90;;;;;;5115616;28;20036;-67
2023/12/20 01:40:36;;;;;;;9.60;2.13;;;7.20;99.90;;;;;;5115719;28;20024;-66
2023/12/20 01:43:07;;;;;;;6.53;1.98;;;7.20;99.90;;;;;;5115686;28;20024;-67
2023/12/20 01:45:33;;;;;;;7.30;1.73;;;7.20;99.90;;;;;;5115690;28;20043;-66
2023/12/20 01:47:59;;;;;;;7.65;1.83;;;7.30;99.90;;;;;;5115547;28;20055;-67
2023/12/20 01:50:25;;;;;;;9.48;2.17;;;7.30;99.90;;;;;;5115285;28;20089;-66
2023/12/20 01:52:55;;;;;;;10.20;2.38;;;7.30;99.90;;;;;;5115420;28;20055;-65
2023/12/20 01:55:21;;;;;;;7.95;1.88;;;7.20;99.90;;;;;;5114746;28;20032;-66
2023/12/20 01:57:47;;;;;;;14.50;2.92;;;7.20;99.90;;;;;;5115328;28;20512;-67
2023/12/20 02:00:14;;;;;;;16.17;2.35;;;7.10;99.90;;;;;;5115151;28;20032;-67
2023/12/20 02:02:40;;;;;;;7.90;1.73;;;7.10;99.90;;;;;;5115350;28;20034;-66
2023/12/20 02:05:07;;;;;;;6.13;1.65;;;7.10;99.90;;;;;;5114372;28;20042;-66
2023/12/20 02:07:34;;;;;;;11.73;1.70;;;7.00;99.90;;;;;;5115249;28;20105;-66
2023/12/20 02:10:04;;;;;;;9.80;2.20;;;7.00;99.90;;;;;;5115232;28;20049;-66
2023/12/20 02:12:30;;;;;;;8.07;1.80;;;6.90;99.90;;;;;;5115265;28;20036;-66
2023/12/20 02:14:56;;;;;;;12.70;2.22;;;6.90;99.90;;;;;;5114099;28;20020;-66
2023/12/20 02:17:23;;;;;;;6.78;1.58;;;6.90;99.90;;;;;;5114921;28;20044;-66
2023/12/20 02:19:49;;;;;;;8.30;1.88;;;6.90;99.90;;;;;;5114936;28;20054;-66
2023/12/20 02:22:15;;;;;;;6.45;2.10;;;6.90;99.90;;;;;;5114873;28;20106;-65
2023/12/20 02:24:40;;;;;;;11.05;3.28;;;6.80;99.90;;;;;;5114185;28;20024;-67
2023/12/20 02:27:07;;;;;;;14.13;1.73;;;6.80;99.90;;;;;;5114885;28;20100;-65
2023/12/20 02:29:33;;;;;;;9.15;1.70;;;6.80;99.90;;;;;;5114838;28;20028;-66
2023/12/20 02:31:59;;;;;;;10.48;1.90;;;6.80;99.90;;;;;;5114571;28;20069;-66
2023/12/20 02:34:25;;;;;;;11.82;1.75;;;6.80;99.90;;;;;;5114722;28;20020;-66
2023/12/20 02:36:50;;;;;;;8.27;1.75;;;6.80;99.90;;;;;;5113599;28;20020;-65
2023/12/20 02:39:16;;;;;;;10.68;2.53;;;6.80;99.90;;;;;;5114562;28;20036;-65
2023/12/20 02:41:42;;;;;;;7.93;2.22;;;6.70;99.90;;;;;;5114667;28;20024;-66
2023/12/20 02:44:07;;;;;;;10.45;1.77;;;6.70;99.90;;;;;;5114612;28;20555;-66
2023/12/20 02:46:33;;;;;;;8.25;1.88;;;6.80;99.90;;;;;;5114431;28;20080;-66
2023/12/20 02:48:59;;;;;;;9.23;2.05;;;6.80;99.90;;;;;;5114394;28;20067;-67
2023/12/20 02:51:24;;;;;;;17.02;2.65;;;6.80;99.90;;;;;;5114152;28;20052;-67
2023/12/20 02:53:50;;;;;;;6.68;1.70;;;6.80;99.90;;;;;;5114442;28;20032;-66
2023/12/20 02:56:15;;;;;;;8.40;1.55;;;6.80;99.90;;;;;;5114323;28;20038;-67
2023/12/20 02:58:41;;;;;;;6.22;1.60;;;6.80;99.90;;;;;;5114192;28;20069;-66
2023/12/20 03:01:06;;;;;;;13.25;2.20;;;6.80;99.90;;;;;;5113988;28;20039;-68
2023/12/20 03:03:32;;;;;;;7.25;2.05;;;6.80;99.90;;;;;;5114131;28;20043;-66
2023/12/20 03:05:58;;;;;;;9.25;2.42;;;6.80;99.90;;;;;;5114012;28;20028;-67
2023/12/20 03:08:23;;;;;;;5.78;1.77;;;6.70;99.90;;;;;;5112998;28;20024;-68
2023/12/20 03:10:49;;;;;;;6.03;2.17;;;6.70;99.90;;;;;;5114026;28;20028;-67
2023/12/20 03:13:15;;;;;;;9.27;2.20;;;6.70;99.90;;;;;;5113983;28;20048;-67
2023/12/20 03:15:41;;;;;;;12.13;2.60;;;6.70;99.90;;;;;;5113924;28;20076;-67
2023/12/20 03:18:06;;;;;;;6.22;1.65;;;6.80;99.90;;;;;;5113832;28;20040;-66
2023/12/20 03:20:34;;;;;;;10.75;2.10;;;6.70;99.90;;;;;;5112692;28;20028;-67
2023/12/20 03:23:00;;;;;;;8.45;1.80;;;6.70;99.90;;;;;;5113753;28;20020;-66
2023/12/20 03:25:26;;;;;;;8.50;1.95;;;6.70;99.90;;;;;;5113771;28;20020;-67
2023/12/20 03:27:53;;;;;;;10.05;2.50;;;6.70;99.90;;;;;;5113743;28;20036;-67
2023/12/20 03:30:19;;;;;;;13.23;2.60;;;6.70;99.90;;;;;;5113464;28;20436;-66
2023/12/20 03:32:44;;;;;;;12.38;2.38;;;6.70;99.90;;;;;;5112540;28;20028;-66
2023/12/20 03:35:10;;;;;;;12.93;2.42;;;6.70;99.90;;;;;;5113493;28;20058;-65
2023/12/20 03:37:36;;;;;;;8.77;1.65;;;6.70;99.90;;;;;;5095391;28;20031;-66
2023/12/20 03:40:02;;;;;;;9.50;1.95;;;6.80;99.90;;;;;;5112518;28;20033;-66
2023/12/20 03:42:27;;;;;;;11.35;2.20;;;6.70;99.90;;;;;;5113504;28;20027;-66
2023/12/20 03:44:53;;;;;;;14.65;2.03;;;6.70;99.90;;;;;;5113437;28;20035;-66
2023/12/20 03:47:18;;;;;;;11.77;2.45;;;6.70;99.90;;;;;;5113327;28;20028;-65
2023/12/20 03:49:44;;;;;;;8.82;1.95;;;6.70;99.90;;;;;;5113272;28;20036;-66
2023/12/20 03:52:09;;;;;;;11.13;2.03;;;6.70;99.90;;;;;;5113104;28;20099;-66
2023/12/20 03:54:35;;;;;;;9.98;2.58;;;6.70;99.90;;;;;;5112131;28;20055;-67
2023/12/20 03:57:01;;;;;;;9.60;2.00;;;6.60;99.90;;;;;;5113182;28;20052;-66
2023/12/20 03:59:27;;;;;;;8.38;2.13;;;6.50;99.90;;;;;;5112993;28;20024;-66
2023/12/20 04:01:52;;;;;;;12.45;2.65;;;6.50;99.90;;;;;;5112817;28;20458;-66
2023/12/20 04:04:19;;;;;;;11.93;2.40;;;6.50;99.90;;;;;;5113005;28;20043;-67
2023/12/20 04:06:44;;;;;;;11.25;2.38;;;6.60;99.90;;;;;;5112926;28;20032;-68
2023/12/20 04:09:10;;;;;;;14.30;2.97;;;6.60;99.90;;;;;;5112059;28;20032;-67
2023/12/20 04:11:36;;;;;;;8.55;2.10;;;6.60;99.90;;;;;;5112940;28;20061;-67
2023/12/20 04:14:02;;;;;;;14.70;2.55;;;6.60;99.90;;;;;;5112923;28;20039;-66
2023/12/20 04:16:28;;;;;;;12.05;2.20;;;6.60;99.90;;;;;;5112806;28;20044;-67
2023/12/20 04:18:53;;;;;;;18.13;2.10;;;6.70;99.90;;;;;;5111759;28;20047;-66
2023/12/20 04:21:19;;;;;;;11.52;2.45;;;6.80;99.90;;;;;;5111740;28;20108;-67
2023/12/20 04:23:44;;;;;;;10.10;2.15;;;6.80;99.90;;;;;;5112621;28;20028;-67
2023/12/20 04:26:10;;;;;;;12.23;2.58;;;6.90;99.90;;;;;;5111697;28;20016;-67
2023/12/20 04:28:36;;;;;;;9.80;2.33;;;6.90;99.90;;;;;;5111618;28;20028;-66
2023/12/20 04:31:01;;;;;;;7.57;2.40;;;6.90;99.90;;;;;;5112447;28;20055;-67
2023/12/20 04:33:27;;;;;;;8.60;2.42;;;7.00;99.90;;;;;;5112635;28;20079;-67
2023/12/20 04:35:53;;;;;;;12.13;2.40;;;7.00;99.90;;;;;;5112512;28;20036;-68
2023/12/20 04:38:18;;;;;;;13.15;2.60;;;7.10;99.90;;;;;;5112443;28;20036;-66
2023/12/20 04:40:44;;;;;;;13.27;2.50;;;7.10;99.90;;;;;;5112535;28;20028;-67
2023/12/20 04:43:09;;;;;;;15.50;2.67;;;7.10;99.90;;;;;;5112466;28;20053;-66
2023/12/20 04:45:35;;;;;;;17.50;2.75;;;7.10;99.90;;;;;;5112305;28;20031;-66
2023/12/20 04:48:02;;;;;;;11.25;2.63;;;7.10;99.90;;;;;;5112986;28;20065;-67
2023/12/20 04:50:28;;;;;;;16.23;2.70;;;7.10;99.90;;;;;;5119073;28;20058;-67
2023/12/20 04:52:53;;;;;;;5.70;1.73;;;7.10;99.90;;;;;;5118208;28;20478;-67
2023/12/20 04:55:19;;;;;;;11.45;2.22;;;7.20;99.90;;;;;;5119224;28;20054;-67
2023/12/20 04:57:45;;;;;;;14.68;2.88;;;7.20;99.90;;;;;;5119096;28;20055;-67
2023/12/20 05:00:12;;;;;;;14.52;2.83;;;7.20;99.90;;;;;;5118922;28;20103;-67
2023/12/20 05:02:37;;;;;;;17.30;3.00;;;7.20;99.90;;;;;;5118978;28;20028;-70
2023/12/20 05:05:03;;;;;;;16.67;3.10;;;7.20;99.90;;;;;;5119078;28;20108;-69
2023/12/20 05:07:29;;;;;;;11.82;2.15;;;7.10;99.90;;;;;;5117979;28;20024;-66
2023/12/20 05:09:54;;;;;;;9.05;2.30;;;7.10;99.90;;;;;;5119054;28;20020;-66
2023/12/20 05:12:20;;;;;;;13.18;2.33;;;7.10;99.90;;;;;;5117992;28;20534;-66
2023/12/20 05:14:46;;;;;;;13.05;3.00;;;7.20;99.90;;;;;;5117933;28;20044;-67
2023/12/20 05:17:11;;;;;;;14.02;2.45;;;7.20;99.90;;;;;;5118811;28;20039;-67
2023/12/20 05:19:37;;;;;;;13.25;2.28;;;7.20;99.90;;;;;;5118846;28;20028;-66
2023/12/20 05:22:03;;;;;;;15.65;2.83;;;7.30;99.90;;;;;;5118930;28;20035;-66
2023/12/20 05:24:29;;;;;;;15.75;2.75;;;7.30;99.90;;;;;;5118926;28;20024;-66
2023/12/20 05:26:54;;;;;;;16.15;3.60;;;7.30;99.90;;;;;;5118847;28;20063;-66
2023/12/20 05:29:20;;;;;;;12.57;2.78;;;7.30;99.90;;;;;;5118850;28;20091;-66
2023/12/20 05:31:46;;;;;;;8.68;1.88;;;7.40;99.90;;;;;;5118593;28;20024;-67
2023/12/20 05:34:11;;;;;;;13.25;3.08;;;7.40;99.90;;;;;;5118856;28;20134;-67
2023/12/20 05:36:38;;;;;;;9.23;2.13;;;7.40;99.90;;;;;;5118805;28;20024;-67
2023/12/20 05:39:04;;;;;;;6.78;1.95;;;7.50;99.90;;;;;;5118753;28;20043;-67
2023/12/20 05:41:31;;;;;;;10.02;2.38;;;7.50;99.90;;;;;;5118950;28;20024;-67
2023/12/20 05:43:57;;;;;;;22.20;2.65;;;7.40;99.90;;;;;;5118722;28;20074;-66
2023/12/20 05:46:24;;;;;;;8.13;1.77;;;7.50;99.90;;;;;;5118562;28;20024;-66
2023/12/20 05:48:51;;;;;;;7.60;1.88;;;7.50;99.90;;;;;;5118660;28;20074;-66
2023/12/20 05:51:17;;;;;;;9.85;2.30;;;7.50;99.90;;;;;;5118497;28;20062;-66
2023/12/20 05:53:44;;;;;;;7.28;1.90;;;7.50;99.90;;;;;;5118626;28;20056;-67
2023/12/20 05:56:10;;;;;;;9.73;2.38;;;7.60;99.90;;;;;;5118608;28;20050;-66
2023/12/20 05:58:36;;;;;;;7.20;1.80;;;7.60;99.90;;;;;;5118400;28;20056;-66
2023/12/20 06:01:04;;;;;;;14.13;2.17;;;7.60;99.90;;;;;;5114212;28;20035;-66
2023/12/20 06:03:29;;;;;;;13.50;2.03;;;7.60;99.90;;;;;;5115328;28;20012;-66
2023/12/20 06:05:55;;;;;;;11.88;2.25;;;7.60;99.90;;;;;;5115326;28;20034;-66
2023/12/20 06:08:21;;;;;;;8.10;2.03;;;7.60;99.90;;;;;;5115275;28;20054;-67
2023/12/20 06:10:46;;;;;;;12.20;2.35;;;7.60;99.90;;;;;;5114216;28;20047;-66
2023/12/20 06:13:13;;;;;;;10.05;2.30;;;7.60;99.90;;;;;;5115075;28;20024;-67
2023/12/20 06:15:39;;;;;;;8.77;2.10;;;7.60;99.90;;;;;;5115010;28;20031;-67
2023/12/20 06:18:06;;;;;;;14.52;2.17;;;7.70;99.90;;;;;;5114939;28;20028;-67
2023/12/20 06:20:32;;;;;;;15.07;2.80;;;7.70;99.90;;;;;;5113918;28;20020;-67
2023/12/20 06:22:58;;;;;;;9.88;2.13;;;7.70;99.90;;;;;;5114933;28;20028;-67
2023/12/20 06:25:23;;;;;;;12.45;3.45;;;7.60;99.90;;;;;;5113825;28;20035;-66
2023/12/20 06:27:49;;;;;;;9.43;2.60;;;7.70;99.90;;;;;;5114916;28;20020;-67
2023/12/20 06:30:15;;;;;;;5.57;1.60;;;7.70;99.90;;;;;;5113589;28;20058;-66
2023/12/20 06:32:42;;;;;;;10.30;2.45;;;7.70;99.90;;;;;;5114762;28;20032;-66
2023/12/20 06:35:11;;;;;;;16.08;2.75;;;7.70;99.90;;;;;;5113881;28;20028;-66
2023/12/20 06:37:36;;;;;;;9.55;2.13;;;7.60;99.90;;;;;;5114579;28;20081;-66
2023/12/20 06:40:02;;;;;;;5.65;1.70;;;7.70;99.90;;;;;;5114713;28;20039;-66
2023/12/20 06:42:28;;;;;;;11.13;1.95;;;7.60;99.90;;;;;;5114522;28;20019;-66
2023/12/20 06:44:53;;;;;;;15.55;2.42;;;7.70;99.90;;;;;;5114600;28;20024;-66
2023/12/20 06:47:19;;;;;;;10.88;2.40;;;7.60;99.90;;;;;;5114469;28;20024;-66
2023/12/20 06:49:44;;;;;;;10.65;2.47;;;7.60;99.90;;;;;;5114390;28;20059;-68
2023/12/20 06:52:10;;;;;;;9.07;1.70;;;7.60;99.90;;;;;;5114282;28;20100;-67
2023/12/20 06:54:36;;;;;;;8.02;1.85;;;7.60;99.90;;;;;;5113334;28;20020;-67
2023/12/20 06:57:02;;;;;;;9.82;2.15;;;7.60;99.90;;;;;;5114099;28;20073;-67
2023/12/20 06:59:29;;;;;;;11.07;2.20;;;7.50;99.90;;;;;;5114288;28;20119;-67
2023/12/20 07:01:54;;;;;;;11.30;2.17;;;7.50;99.90;;;;;;5100624;28;20028;-68
2023/12/20 07:04:21;;;;;;;6.63;1.95;;;7.50;99.90;;;;;;5092463;28;20034;-66
2023/12/20 07:06:48;;;;;;;11.77;2.22;;;7.50;99.90;;;;;;5092617;28;20016;-66
2023/12/20 07:09:14;;;;;;;7.78;1.92;;;7.50;99.90;;;;;;5093295;28;20024;-65
2023/12/20 07:11:40;;;;;;;8.52;2.00;;;7.40;99.90;;;;;;5092526;28;20498;-67
2023/12/20 07:14:05;;;;;;;11.95;2.10;;;7.40;99.90;;;;;;5093388;28;20025;-66
2023/12/20 07:16:31;;;;;;;13.27;2.63;;;7.40;99.90;;;;;;5091589;28;20040;-67
2023/12/20 07:18:57;;;;;;;6.18;2.15;;;7.40;99.90;;;;;;5092797;28;20044;-68
2023/12/20 07:21:23;;;;;;;12.32;3.03;;;7.40;99.90;;;;;;5093105;28;20029;-67
2023/12/20 07:23:49;;;;;;;11.40;2.28;;;7.40;99.90;;;;;;5093296;28;20029;-68
2023/12/20 07:26:15;;;;;;;9.77;2.15;;;7.40;99.90;;;;;;5093313;28;20094;-67
2023/12/20 07:28:41;;;;;;;8.90;2.33;;;7.40;99.90;;;;;;5093274;28;20020;-66
2023/12/20 07:31:06;;;;;;;9.27;2.80;;;7.40;99.90;;;;;;5091999;28;20044;-67
2023/12/20 07:33:32;;;;;;;15.02;3.13;;;7.40;99.90;;;;;;5093232;28;20032;-66
2023/12/20 07:36:00;;;;;;;11.40;2.63;;;7.40;99.90;;;;;;5092222;28;20035;-66
2023/12/20 07:38:26;;;;;;;13.88;3.35;;;7.40;99.90;;;;;;5093123;28;20043;-68
2023/12/20 07:40:52;;;;;;;10.23;3.05;;;7.40;99.90;;;;;;5093173;28;20511;-68
2023/12/20 07:43:17;;;;;;;18.80;3.30;;;7.30;99.90;;;;;;5093129;28;20021;-66
2023/12/20 07:45:43;;;;;;;14.02;2.95;;;7.30;99.90;;;;;;5092978;28;20032;-66
2023/12/20 07:48:08;;;;;;;14.20;2.88;;;7.40;99.90;;;;;;5093099;28;20024;-66
2023/12/20 07:50:34;;;;;;;14.27;3.08;;;7.30;99.90;;;;;;5092871;28;20055;-66
2023/12/20 07:53:00;;;;;;;13.30;2.80;;;7.30;99.90;;;;;;5093001;28;20028;-66
2023/12/20 07:55:27;;;;;;;12.65;2.70;;;7.30;99.90;;;;;;5092912;28;20022;-67
2023/12/20 07:57:53;;;;;;;10.38;3.10;;;7.30;99.90;;;;;;5091815;28;20041;-66
2023/12/20 08:00:19;;;;;;;10.52;2.95;;;7.30;99.90;;;;;;5092804;28;20040;-67
2023/12/20 08:02:45;;;;;;;12.60;2.80;;;7.30;99.90;;;;;;5092788;28;20017;-67
2023/12/20 08:05:10;;;;;;;15.35;3.47;;;7.40;99.90;;;;;;5092764;28;20020;-64
2023/12/20 08:07:36;;;;;;;8.45;2.63;;;7.40;99.90;;;;;;5092674;28;20013;-66
2023/12/20 08:10:02;;;;;;;11.18;2.70;;;7.40;99.90;;;;;;5092573;28;20028;-67
2023/12/20 08:12:31;;;;;;;7.80;2.78;;;7.30;99.90;;;;;;5092691;28;20067;-67
2023/12/20 08:15:15;;;;;;;11.98;3.00;;;7.30;99.90;;;;;;5092833;28;20031;-68
2023/12/20 08:17:42;;;;;;;9.30;3.10;;;7.30;99.90;;;;;;5092361;28;20288;-66
2023/12/20 08:20:07;;;;;;;11.10;2.58;;;7.30;99.90;;;;;;5091455;28;20029;-66
2023/12/20 08:22:33;;;;;;;10.30;3.25;;;7.30;99.90;;;;;;5102699;28;20031;-66
2023/12/20 08:24:59;;;;;;;19.63;3.53;;;7.30;99.90;;;;;;5097398;28;20017;-65
2023/12/20 08:27:25;;;;;;;8.10;2.63;;;7.30;99.90;;;;;;5111586;28;20070;-66
2023/12/20 08:29:51;;;;;;;10.50;2.55;;;7.40;99.90;;;;;;5112388;28;20020;-66
2023/12/20 08:32:16;;;;;;;12.55;3.05;;;7.40;99.90;;;;;;5111536;28;20024;-67
2023/12/20 08:34:42;;;;;;;16.98;2.67;;;7.40;99.90;;;;;;5112630;28;20607;-66
2023/12/20 08:37:08;;;;;;;12.80;2.85;;;7.40;99.90;;;;;;5111427;28;20055;-66
2023/12/20 08:39:33;;;;;;;8.52;2.15;;;7.40;99.90;;;;;;5111892;28;20052;-66
2023/12/20 08:41:59;;;;;;;17.85;3.38;;;7.50;99.90;;;;;;5092687;28;20020;-66
2023/12/20 08:44:25;;;;;;;10.18;2.10;;;7.40;99.90;;;;;;5091522;28;20060;-68
2023/12/20 08:46:50;;;;;;;12.15;2.53;;;7.40;99.90;;;;;;5091642;28;20021;-66
2023/12/20 08:49:18;;;;;;;12.90;2.70;;;7.40;99.90;;;;;;5091821;28;20033;-66
2023/12/20 08:51:43;;;;;;;13.85;2.60;;;7.50;99.90;;;;;;5090335;28;20072;-65
2023/12/20 08:54:19;;;;;;;11.38;2.90;;;7.50;99.90;;;;;;5091175;28;20033;-65
2023/12/20 08:56:46;;;;;;;9.20;3.10;;;7.50;99.90;;;;;;5091244;28;20084;-65
2023/12/20 08:59:11;;;;;;;12.23;2.67;;;7.50;99.90;;;;;;5091195;28;20036;-65
2023/12/20 09:01:37;;;;;;;13.55;3.13;;;7.60;99.90;;;;;;5092108;28;20029;-67
2023/12/20 09:04:03;;;;;;;11.77;2.63;;;7.60;99.90;;;;;;5092147;28;20047;-67
2023/12/20 09:06:28;;;;;;;10.90;2.58;;;7.60;99.90;;;;;;5092118;28;20029;-66
2023/12/20 09:08:54;;;;;;;10.48;2.55;;;7.70;99.90;;;;;;5092107;28;20036;-66
2023/12/20 09:11:20;;;;;;;19.45;2.83;;;7.60;99.90;;;;;;5091964;28;20033;-68
2023/12/20 09:13:45;;;;;;;9.93;2.55;;;7.70;99.90;;;;;;5092154;28;20036;-67
2023/12/20 09:16:13;;;;;;;17.90;3.13;;;7.60;99.90;;;;;;5091894;28;20154;-66
2023/12/20 09:18:38;;;;;;;8.60;2.38;;;7.70;99.90;;;;;;5091108;28;20037;-67
2023/12/20 09:21:04;;;;;;;18.23;3.05;;;7.70;99.90;;;;;;5090860;28;20025;-66
2023/12/20 09:23:29;;;;;;;15.93;2.97;;;7.70;99.90;;;;;;5092013;28;20054;-67
2023/12/20 09:25:55;;;;;;;13.52;2.53;;;7.70;99.90;;;;;;5074237;28;20028;-66
2023/12/20 09:28:21;;;;;;;15.30;2.50;;;7.70;99.90;;;;;;5091986;28;20031;-65
2023/12/20 09:30:47;;;;;;;11.50;2.60;;;7.80;99.90;;;;;;5091646;28;20031;-66
2023/12/20 09:33:13;;;;;;;7.72;2.10;;;7.80;99.90;;;;;;5091762;28;20074;-66
2023/12/20 09:35:39;;;;;;;11.57;2.85;;;7.80;99.90;;;;;;5094060;28;20048;-67
2023/12/20 09:38:05;;;;;;;8.18;2.47;;;7.90;99.90;;;;;;5095543;28;20051;-67
2023/12/20 09:40:33;;;;;;;12.48;2.15;;;7.90;99.90;;;;;;5095575;28;20024;-67
2023/12/20 09:43:10;;;;;;;15.80;2.60;;;7.90;99.90;;;;;;5095515;28;20021;-67
2023/12/20 09:45:36;;;;;;;14.98;2.58;;;7.80;99.90;;;;;;5094377;28;20031;-67
2023/12/20 09:48:04;;;;;;;8.20;2.00;;;7.90;99.90;;;;;;5095272;28;20526;-66
2023/12/20 09:50:32;;;;;;;17.55;3.33;;;7.90;99.90;;;;;;5095445;28;20039;-66
2023/12/20 09:53:00;;;;;;;9.13;2.35;;;7.90;99.90;;;;;;5095533;28;20020;-66
2023/12/20 09:55:30;;;;;;;13.85;3.55;;;7.90;99.90;;;;;;5094235;28;20049;-66
2023/12/20 09:57:56;;;;;;;12.13;2.83;;;8.00;99.90;;;;;;5095174;28;20036;-66
2023/12/20 10:00:25;;;;;;;17.60;2.85;;;7.90;99.90;;;;;;5093642;28;20020;-66
2023/12/20 10:03:03;;;;;;;12.43;2.47;;;8.00;99.90;;;;;;5094177;28;20076;-67
2023/12/20 10:06:14;;;;;;;9.73;2.22;;;8.00;99.90;;;;;;5094842;28;20017;-67
2023/12/20 10:08:40;;;;;;;8.32;2.40;;;7.90;99.90;;;;;;5094941;28;20048;-67
2023/12/20 10:11:06;;;;;;;9.00;2.35;;;8.00;99.90;;;;;;5094891;28;21130;-68
2023/12/20 10:13:32;;;;;;;13.68;3.60;;;8.00;99.90;;;;;;5093556;28;20032;-67
2023/12/20 10:15:57;;;;;;;16.58;2.30;;;8.00;99.90;;;;;;5093792;28;20027;-68
2023/12/20 10:18:23;;;;;;;9.77;2.60;;;8.00;99.90;;;;;;5094624;28;20057;-68
2023/12/20 10:20:49;;;;;;;10.63;2.72;;;8.00;99.90;;;;;;5093702;28;20021;-66
2023/12/20 10:23:16;;;;;;;12.18;2.75;;;8.00;99.90;;;;;;5094808;28;20025;-67
2023/12/20 10:25:41;;;;;;;17.02;2.88;;;8.10;99.90;;;;;;5094515;28;20037;-67
2023/12/20 10:28:19;;;;;;;11.80;2.20;;;8.10;99.90;;;;;;5094540;28;20076;-67
2023/12/20 10:30:45;;;;;;;9.00;2.33;;;8.10;99.90;;;;;;5094313;28;20029;-67
2023/12/20 10:33:10;;;;;;;14.65;3.30;;;8.10;99.90;;;;;;5094488;28;20081;-68
2023/12/20 10:35:38;;;;;;;11.38;2.72;;;8.10;99.90;;;;;;5094439;28;20111;-67
2023/12/20 10:38:05;;;;;;;10.15;2.50;;;8.10;99.90;;;;;;5094376;28;20028;-68
2023/12/20 10:40:36;;;;;;;8.57;1.80;;;8.10;99.90;;;;;;5093359;28;20044;-67
2023/12/20 10:43:03;;;;;;;10.55;2.75;;;8.20;99.90;;;;;;5094482;28;20016;-68
2023/12/20 10:45:29;;;;;;;14.35;2.83;;;8.20;99.90;;;;;;5093958;28;20019;-68
2023/12/20 10:47:56;;;;;;;9.13;2.33;;;8.20;99.90;;;;;;5075893;28;20032;-70
2023/12/20 10:50:21;;;;;;;10.55;2.15;;;8.20;99.90;;;;;;5093299;28;20052;-68
2023/12/20 10:52:48;;;;;;;10.77;1.77;;;8.30;99.90;;;;;;5092753;28;20036;-68
2023/12/20 10:55:14;;;;;;;5.88;1.80;;;8.30;99.90;;;;;;5094118;28;20017;-68
2023/12/20 10:57:39;;;;;;;15.13;2.42;;;8.30;99.90;;;;;;5093994;28;20062;-68
2023/12/20 11:00:09;;;;;;;10.43;2.55;;;8.40;99.90;;;;;;5093813;28;20067;-67
2023/12/20 11:02:39;;;;;;;11.80;2.53;;;8.30;99.90;;;;;;5092830;28;20051;-69
2023/12/20 11:05:48;;;;;;;10.20;1.80;;;8.30;99.90;;;;;;5093868;28;20103;-69
2023/12/20 11:08:27;;;;;;;14.75;2.47;;;8.40;99.90;;;;;;5097765;28;20044;-69
2023/12/20 11:11:01;;;;;;;15.27;2.92;;;8.40;99.90;;;;;;5114043;28;20024;-70
2023/12/20 11:14:03;;;;;;;10.20;3.03;;;8.40;99.90;;;;;;5114088;28;20031;-70
2023/12/20 11:16:31;;;;;;;12.30;2.05;;;8.40;99.90;;;;;;5079748;28;20104;-71
2023/12/20 11:18:57;;;;;;;8.65;2.10;;;8.40;99.90;;;;;;5113900;28;20035;-70
2023/12/20 11:21:22;;;;;;;7.50;2.50;;;8.50;99.90;;;;;;5112858;28;20040;-70
2023/12/20 11:23:48;;;;;;;10.85;2.50;;;8.50;99.90;;;;;;5113804;28;20545;-70
2023/12/20 11:26:16;;;;;;;13.52;2.40;;;8.50;99.90;;;;;;5112819;28;20027;-71
2023/12/20 11:28:42;;;;;;;9.43;2.45;;;8.50;99.90;;;;;;5112851;28;20027;-71
2023/12/20 11:31:10;;;;;;;9.45;2.10;;;8.50;99.90;;;;;;5113582;28;20032;-70
2023/12/20 11:33:37;;;;;;;9.80;2.20;;;8.50;99.90;;;;;;5112011;28;20024;-70
2023/12/20 11:36:03;;;;;;;5.50;1.88;;;8.50;99.90;;;;;;5113114;28;20024;-69
2023/12/20 11:38:38;;;;;;;19.17;2.22;;;8.60;99.90;;;;;;5113288;28;20032;-70
2023/12/20 11:41:07;;;;;;;8.27;2.08;;;8.60;99.90;;;;;;5113472;28;20028;-69
2023/12/20 11:43:36;;;;;;;13.57;2.40;;;8.60;99.90;;;;;;5113473;28;20039;-70
2023/12/20 11:46:05;;;;;;;14.35;2.20;;;8.60;99.90;;;;;;5100167;28;20047;-68
2023/12/20 11:48:32;;;;;;;9.27;1.98;;;8.60;99.90;;;;;;5091127;28;20088;-68
2023/12/20 11:50:58;;;;;;;7.80;2.40;;;8.60;99.90;;;;;;5091083;28;20040;-69
2023/12/20 11:53:23;;;;;;;10.80;2.45;;;8.60;99.90;;;;;;5090530;28;20551;-68
2023/12/20 11:55:49;;;;;;;14.82;2.85;;;8.70;99.90;;;;;;5092503;28;20026;-69
2023/12/20 11:58:16;;;;;;;9.32;3.45;;;8.70;99.90;;;;;;5091413;28;20052;-68
2023/12/20 12:00:43;;;;;;;21.17;3.88;;;8.70;99.90;;;;;;5092191;28;20038;-69
2023/12/20 12:03:09;;;;;;;15.95;2.90;;;8.70;99.90;;;;;;5092284;28;20016;-69
2023/12/20 12:05:35;;;;;;;6.28;2.05;;;8.70;99.90;;;;;;5092718;28;20021;-68
2023/12/20 12:08:02;;;;;;;15.98;4.18;;;8.70;99.90;;;;;;5092709;28;20027;-70
2023/12/20 12:10:28;;;;;;;18.02;4.30;;;8.60;99.90;;;;;;5092707;28;20021;-70
2023/12/20 12:12:54;;;;;;;9.60;4.82;;;8.60;99.90;;;;;;5092586;28;20020;-69
2023/12/20 12:15:21;;;;;;;10.02;5.13;;;8.70;99.90;;;;;;5092239;28;20474;-69
2023/12/20 12:17:56;;;;;;;12.25;3.10;;;8.70;99.90;;;;;;5092415;28;20017;-70
2023/12/20 12:20:23;;;;;;;20.73;3.35;;;8.70;99.90;;;;;;5092409;28;20032;-71
2023/12/20 12:23:03;;;;;;;12.52;2.65;;;8.70;99.90;;;;;;5092414;28;20029;-70
2023/12/20 12:25:34;;;;;;;17.38;3.85;;;8.70;99.90;;;;;;5092516;28;20024;-70
2023/12/20 12:28:00;;;;;;;10.98;2.83;;;8.70;99.90;;;;;;5092580;28;20016;-70
2023/12/20 12:30:25;;;;;;;10.07;2.72;;;8.70;99.90;;;;;;5092153;28;20032;-70
2023/12/20 12:32:52;;;;;;;10.93;3.20;;;8.70;99.90;;;;;;5092401;28;20040;-70
2023/12/20 12:35:18;;;;;;;11.75;2.53;;;8.70;99.90;;;;;;5092457;28;20043;-70
2023/12/20 12:37:44;;;;;;;17.02;5.45;;;8.80;99.90;;;;;;5092244;28;20032;-70
2023/12/20 12:40:14;;;;;;;11.10;3.40;;;8.70;99.90;;;;;;5092416;28;20047;-69
2023/12/20 12:42:41;;;;;;;17.85;4.40;;;8.80;99.90;;;;;;5092233;28;20066;-70
2023/12/20 12:45:07;;;;;;;7.45;2.40;;;8.80;99.90;;;;;;5092163;28;20103;-70
2023/12/20 12:47:36;;;;;;;17.15;3.83;;;8.70;99.90;;;;;;5092086;28;20029;-69